createdAt,value
2022-08-19T00:00:26.099Z,100100.63
2022-08-19T00:03:20.121Z,100104.34
2022-08-19T00:05:49.913Z,100092.16
2022-08-19T00:08:17.739Z,100099.97
2022-08-19T00:10:52.226Z,100113.53
2022-08-19T00:13:22.121Z,100123.94
2022-08-19T00:15:48.996Z,100111.78
2022-08-19T00:18:15.817Z,100111.94
2022-08-19T00:20:49.626Z,100118.94
2022-08-19T00:23:17.070Z,100117.63
2022-08-19T00:25:44.010Z,100115.78
2022-08-19T00:28:24.509Z,100114.75
2022-08-19T00:30:52.945Z,100123.50
2022-08-19T00:33:23.194Z,100124.72
2022-08-19T00:35:56.007Z,100125.53
2022-08-19T00:38:34.949Z,100126.97
2022-08-19T00:41:22.206Z,100129.69
2022-08-19T00:44:00.379Z,100136.94
2022-08-19T00:46:31.836Z,100141.25
2022-08-19T01:53:06.118Z,100135.00
2022-08-19T01:56:45.072Z,100128.91
2022-08-19T01:59:10.119Z,100136.88
2022-08-19T02:02:28.980Z,100129.00
2022-08-19T02:05:55.259Z,100118.28
2022-08-19T02:08:40.107Z,100093.66
2022-08-19T02:11:36.817Z,100086.19
2022-08-19T02:14:09.147Z,100065.19
2022-08-19T02:19:57.507Z,100066.31
2022-08-19T02:22:34.460Z,100060.09
2022-08-19T02:32:08.146Z,100071.44
2022-08-19T02:34:43.135Z,100060.91
2022-08-19T02:37:35.859Z,100039.09
2022-08-19T02:40:12.859Z,100041.94
2022-08-19T02:42:50.511Z,100046.97
2022-08-19T02:45:23.918Z,100048.25
2022-08-19T02:54:27.213Z,100053.69
2022-08-19T02:57:07.684Z,100061.91
2022-08-19T03:00:09.384Z,100080.28
2022-08-19T03:13:02.773Z,100063.03
2022-08-19T03:25:26.650Z,100089.56
2022-08-19T03:39:19.700Z,100040.84
2022-08-19T03:41:48.501Z,100042.53
2022-08-19T03:44:19.393Z,100041.03
2022-08-19T03:46:49.075Z,100040.22
2022-08-19T03:49:16.036Z,100042.63
2022-08-19T03:51:45.180Z,100045.78
2022-08-19T03:54:14.701Z,100047.56
2022-08-19T03:56:44.048Z,100061.56
2022-08-19T03:59:14.564Z,100064.94
2022-08-19T04:01:42.134Z,100064.56
2022-08-19T04:04:09.399Z,100067.75
2022-08-19T04:06:38.850Z,100070.00
2022-08-19T04:09:09.738Z,100064.59
2022-08-19T04:11:44.596Z,100064.59
2022-08-19T04:14:15.261Z,100064.72
2022-08-19T04:16:43.771Z,100058.78
2022-08-19T04:19:14.058Z,100062.38
2022-08-19T04:21:41.131Z,100062.09
2022-08-19T04:24:08.210Z,100082.31
2022-08-19T04:26:37.107Z,100088.03
2022-08-19T04:29:12.151Z,100099.97
2022-08-19T04:31:39.878Z,100090.66
2022-08-19T04:34:08.873Z,100081.53
2022-08-19T04:36:36.812Z,100061.00
2022-08-19T04:39:06.180Z,100039.84
2022-08-19T04:41:52.687Z,100040.97
2022-08-19T04:44:19.816Z,100050.34
2022-08-19T04:46:51.763Z,100053.41
2022-08-19T04:49:20.855Z,100054.19
2022-08-19T04:51:48.996Z,100049.59
2022-08-19T04:54:30.934Z,100053.81
2022-08-19T04:57:07.147Z,100059.38
2022-08-19T04:59:34.624Z,100059.75
2022-08-19T05:02:01.336Z,100055.84
2022-08-19T05:04:33.111Z,100053.41
2022-08-19T05:07:01.895Z,100044.19
2022-08-19T05:09:36.151Z,100040.47
2022-08-19T05:12:17.134Z,100053.41
2022-08-19T05:14:46.044Z,100055.88
2022-08-19T05:17:27.185Z,100048.78
2022-08-19T05:20:13.292Z,100045.16
2022-08-19T05:22:40.537Z,100048.31
2022-08-19T05:25:12.959Z,100046.88
2022-08-19T05:27:41.073Z,100029.78
2022-08-19T05:30:08.423Z,100027.19
2022-08-19T05:32:35.365Z,100024.94
2022-08-19T05:35:02.304Z,100017.94
2022-08-19T05:37:29.503Z,100018.72
2022-08-19T05:39:56.337Z,100024.41
2022-08-19T05:42:24.191Z,100017.63
2022-08-19T05:44:51.793Z,100021.44
2022-08-19T05:47:20.943Z,100017.16
2022-08-19T05:49:48.323Z,100017.59
2022-08-19T05:52:16.977Z,100017.06
2022-08-19T05:54:51.021Z,100020.88
2022-08-19T05:57:19.930Z,100027.69
2022-08-19T05:59:52.641Z,100027.78
2022-08-19T06:02:19.747Z,100028.50
2022-08-19T06:04:46.507Z,100025.44
2022-08-19T06:07:13.265Z,100026.28
2022-08-19T06:09:40.785Z,100040.19
2022-08-19T06:12:08.044Z,100031.88
2022-08-19T06:14:37.551Z,100037.84
2022-08-19T06:17:08.766Z,100031.13
2022-08-19T06:19:40.589Z,100043.63
2022-08-19T06:22:08.502Z,100044.84
2022-08-19T06:24:36.504Z,100047.81
2022-08-19T06:27:06.647Z,100052.88
2022-08-19T06:29:34.497Z,100052.56
2022-08-19T06:32:04.118Z,100041.84
2022-08-19T06:34:32.658Z,100038.59
2022-08-19T06:37:04.073Z,100039.88
2022-08-19T06:39:34.002Z,100038.47
2022-08-19T06:42:04.318Z,100035.84
2022-08-19T06:44:37.304Z,100033.03
2022-08-19T06:47:14.516Z,100028.75
2022-08-19T06:49:42.324Z,100030.75
2022-08-19T06:52:09.645Z,100041.41
2022-08-19T06:54:53.733Z,100040.09
2022-08-19T06:57:26.951Z,100047.69
2022-08-19T06:59:53.998Z,100051.69
2022-08-19T07:02:21.775Z,100044.03
2022-08-19T07:04:48.848Z,100047.69
2022-08-19T07:07:21.813Z,100054.84
2022-08-19T07:09:58.007Z,100061.84
2022-08-19T07:12:30.208Z,100062.84
2022-08-19T07:14:58.797Z,100073.75
2022-08-19T07:17:25.821Z,100080.94
2022-08-19T07:19:54.520Z,100076.78
2022-08-19T07:22:23.775Z,100076.09
2022-08-19T07:27:24.330Z,100094.59
2022-08-19T07:29:56.326Z,100094.81
2022-08-19T07:32:30.391Z,100090.66
2022-08-19T07:34:57.280Z,100098.78
2022-08-19T07:37:32.480Z,100095.72
2022-08-19T07:40:00.062Z,100087.19
2022-08-19T07:42:27.724Z,100081.75
2022-08-19T07:44:54.487Z,100080.72
2022-08-19T07:47:50.090Z,100086.22
2022-08-19T07:50:10.256Z,100097.88
2022-08-19T07:52:39.671Z,100094.72
2022-08-19T07:55:08.187Z,100109.34
2022-08-19T07:57:54.981Z,100101.63
2022-08-19T08:00:24.327Z,100102.69
2022-08-19T08:02:51.561Z,100096.84
2022-08-19T08:05:40.631Z,100087.50
2022-08-19T08:08:48.270Z,100098.09
2022-08-19T08:11:17.547Z,100106.28
2022-08-19T08:13:46.218Z,100108.66
2022-08-19T08:16:14.365Z,100108.25
2022-08-19T08:18:43.391Z,100114.34
2022-08-19T08:21:17.209Z,100119.34
2022-08-19T08:23:44.127Z,100117.72
2022-08-19T08:26:12.086Z,100120.47
2022-08-19T08:28:39.715Z,100135.38
2022-08-19T08:31:09.751Z,100132.25
2022-08-19T08:33:36.666Z,100135.78
2022-08-19T08:36:08.108Z,100131.63
2022-08-19T08:38:42.804Z,100146.28
2022-08-19T08:41:32.592Z,100145.41
2022-08-19T08:43:59.433Z,100156.88
2022-08-19T08:46:41.112Z,100152.06
2022-08-19T08:49:43.539Z,100155.09
2022-08-19T08:52:23.907Z,100143.97
2022-08-19T08:54:55.281Z,100139.25
2022-08-19T08:57:30.510Z,100136.16
2022-08-19T09:00:15.185Z,100142.22
2022-08-19T09:02:43.347Z,100143.34
2022-08-19T09:05:16.458Z,100141.34
2022-08-19T09:07:57.150Z,100133.66
2022-08-19T09:10:44.214Z,100136.00
2022-08-19T09:13:43.326Z,100136.50
2022-08-19T09:16:16.265Z,100134.50
2022-08-19T09:18:49.924Z,100151.22
2022-08-19T09:21:17.185Z,100147.94
2022-08-19T09:23:44.469Z,100148.69
2022-08-19T09:26:16.514Z,100144.88
2022-08-19T09:28:45.398Z,100135.88
2022-08-19T09:31:19.020Z,100140.59
2022-08-19T09:33:46.041Z,100127.53
2022-08-19T09:36:14.821Z,100125.66
2022-08-19T09:38:57.008Z,100128.78
2022-08-19T09:41:25.982Z,100131.06
2022-08-19T09:43:57.089Z,100134.00
2022-08-19T09:46:28.669Z,100126.03
2022-08-19T09:49:06.161Z,100117.47
2022-08-19T09:51:33.870Z,100129.25
2022-08-19T09:54:05.636Z,100129.75
2022-08-19T09:56:34.134Z,100123.13
2022-08-19T09:59:02.245Z,100123.09
2022-08-19T10:01:30.747Z,100124.88
2022-08-19T10:03:59.199Z,100129.50
2022-08-19T10:06:46.200Z,100132.84
2022-08-19T10:09:15.841Z,100141.84
2022-08-19T10:11:51.164Z,100132.22
2022-08-19T10:14:23.527Z,100133.13
2022-08-19T10:16:52.983Z,100127.63
2022-08-19T10:19:26.000Z,100127.03
2022-08-19T10:21:54.018Z,100122.41
2022-08-19T10:24:21.739Z,100124.09
2022-08-19T10:26:57.233Z,100126.78
2022-08-19T10:29:32.716Z,100119.03
2022-08-19T10:32:05.626Z,100106.91
2022-08-19T10:34:48.462Z,100107.78
2022-08-19T10:37:23.914Z,100099.66
2022-08-19T10:39:56.198Z,100100.72
2022-08-19T10:42:23.062Z,100113.88
2022-08-19T10:44:49.849Z,100107.59
2022-08-19T10:47:25.451Z,100103.59
2022-08-19T10:50:12.599Z,100109.03
2022-08-19T10:52:49.540Z,100111.31
2022-08-19T10:55:38.850Z,100106.09
2022-08-19T10:58:11.681Z,100103.63
2022-08-19T11:00:38.487Z,100100.28
2022-08-19T11:03:05.228Z,100097.16
2022-08-19T11:05:39.739Z,100107.38
2022-08-19T11:08:22.155Z,100097.94
2022-08-19T11:10:51.156Z,100101.69
2022-08-19T11:13:20.438Z,100110.88
2022-08-19T11:15:48.515Z,100108.38
2022-08-19T11:18:15.245Z,100108.81
2022-08-19T11:20:42.438Z,100116.97
2022-08-19T11:23:09.177Z,100118.91
2022-08-19T11:25:36.320Z,100114.03
2022-08-19T11:28:03.248Z,100114.72
2022-08-19T11:30:29.994Z,100116.75
2022-08-19T11:32:56.815Z,100118.88
2022-08-19T11:35:24.372Z,100129.50
2022-08-19T11:37:51.089Z,100123.03
2022-08-19T11:40:17.966Z,100118.84
2022-08-19T11:42:57.252Z,100127.41
2022-08-19T11:45:25.362Z,100126.13
2022-08-19T11:47:52.108Z,100128.13
2022-08-19T11:50:19.819Z,100128.94
2022-08-19T11:52:46.736Z,100131.78
2022-08-19T11:55:14.888Z,100141.28
2022-08-19T11:57:42.304Z,100137.56
2022-08-19T12:00:10.723Z,100142.16
2022-08-19T12:02:37.423Z,100142.16
2022-08-19T12:05:06.939Z,100143.44
2022-08-19T12:15:25.078Z,100152.69
2022-08-19T12:17:53.292Z,100157.50
2022-08-19T12:20:20.194Z,100158.53
2022-08-19T12:22:47.258Z,100157.09
2022-08-19T12:25:14.033Z,100159.00
2022-08-19T12:27:42.795Z,100157.31
2022-08-19T12:30:15.355Z,100163.03
2022-08-19T12:32:42.196Z,100167.88
2022-08-19T12:35:10.299Z,100159.97
2022-08-19T12:37:37.291Z,100162.25
2022-08-19T12:40:04.920Z,100165.41
2022-08-19T12:42:31.772Z,100158.06
2022-08-19T12:44:58.582Z,100162.25
2022-08-19T12:47:27.509Z,100157.03
2022-08-19T12:49:55.990Z,100163.72
2022-08-19T12:52:28.249Z,100161.47
2022-08-19T12:54:56.989Z,100165.41
2022-08-19T12:57:31.880Z,100157.38
2022-08-19T13:00:11.633Z,100159.88
2022-08-19T13:02:39.526Z,100158.22
2022-08-19T13:05:09.424Z,100159.47
2022-08-19T13:07:37.007Z,100160.38
2022-08-19T13:10:04.451Z,100158.94
2022-08-19T13:12:31.319Z,100152.88
2022-08-19T13:14:58.228Z,100155.19
2022-08-19T13:17:25.355Z,100147.22
2022-08-19T13:19:52.144Z,100149.88
2022-08-19T13:22:18.828Z,100159.88
2022-08-19T13:24:47.437Z,100146.84
2022-08-19T13:27:15.331Z,100154.22
2022-08-19T13:30:02.391Z,100148.06
2022-08-19T13:32:49.625Z,100151.44
2022-08-19T13:35:17.792Z,100148.75
2022-08-19T13:37:45.159Z,100151.47
2022-08-19T13:40:19.634Z,100154.63
2022-08-19T13:42:48.983Z,100155.72
2022-08-19T13:53:22.409Z,100151.97
2022-08-19T13:57:06.418Z,100143.44
2022-08-19T14:00:27.383Z,100149.22
2022-08-19T14:28:24.942Z,100146.78
2022-08-19T14:30:55.334Z,100148.44
2022-08-19T14:33:23.471Z,100137.78
2022-08-19T14:39:19.430Z,100146.16
2022-08-19T14:41:47.583Z,100149.91
2022-08-19T14:44:14.331Z,100152.03
2022-08-19T14:46:41.524Z,100159.53
2022-08-19T14:49:16.572Z,100163.94
2022-08-19T14:51:43.233Z,100171.09
2022-08-19T14:54:09.980Z,100151.22
2022-08-19T14:56:36.732Z,100153.50
2022-08-19T14:59:03.980Z,100151.00
2022-08-19T15:01:30.777Z,100153.50
2022-08-19T15:03:57.593Z,100153.09
2022-08-19T15:06:25.540Z,100157.91
2022-08-19T15:08:55.436Z,100166.88
2022-08-19T15:11:24.907Z,100167.47
2022-08-19T15:13:51.762Z,100179.19
2022-08-19T15:16:19.230Z,100175.78
2022-08-19T15:18:47.278Z,100185.13
2022-08-19T15:21:17.539Z,100186.31
2022-08-19T15:23:55.469Z,100196.13
2022-08-19T15:26:22.541Z,100206.25
2022-08-19T15:28:49.354Z,100212.06
2022-08-19T15:31:27.979Z,100210.78
2022-08-19T15:38:03.924Z,100212.25
2022-08-19T15:45:02.657Z,100215.19
2022-08-19T15:51:10.437Z,100224.72
2022-08-19T15:53:37.277Z,100220.31
2022-08-19T15:56:04.472Z,100234.28
2022-08-19T15:58:49.845Z,100232.22
2022-08-19T16:01:48.674Z,100237.00
2022-08-19T16:04:35.099Z,100228.59
2022-08-19T16:07:02.353Z,100241.34
2022-08-19T16:09:31.169Z,100245.47
2022-08-19T16:12:02.736Z,100234.50
2022-08-19T16:14:32.182Z,100240.53
2022-08-19T16:16:59.024Z,100229.44
2022-08-19T16:19:25.834Z,100229.06
2022-08-19T16:21:56.323Z,100232.22
2022-08-19T16:24:27.265Z,100236.81
2022-08-19T16:26:54.673Z,100241.41
2022-08-19T16:29:33.776Z,100236.41
2022-08-19T16:35:16.548Z,100231.72
2022-08-19T16:37:43.488Z,100234.88
2022-08-19T16:50:49.442Z,100230.28
2022-08-19T16:56:38.440Z,100238.56
2022-08-19T16:59:08.711Z,100230.41
2022-08-19T17:01:47.379Z,100236.22
2022-08-19T17:04:24.006Z,100232.47
2022-08-19T17:07:33.970Z,100234.41
2022-08-19T17:10:16.057Z,100237.97
2022-08-19T17:12:42.790Z,100232.09
2022-08-19T17:15:09.772Z,100232.09
2022-08-19T17:17:37.559Z,100235.44
2022-08-19T17:20:06.179Z,100229.56
2022-08-19T17:22:33.275Z,100234.56
2022-08-19T17:25:02.204Z,100227.38
2022-08-19T17:27:38.544Z,100231.03
2022-08-19T17:30:08.378Z,100240.19
2022-08-19T17:32:40.947Z,100232.94
2022-08-19T17:35:08.625Z,100230.88
2022-08-19T17:38:10.880Z,100229.59
2022-08-19T17:40:43.042Z,100229.44
2022-08-19T17:43:10.784Z,100223.81
2022-08-19T17:45:38.832Z,100229.63
2022-08-19T17:48:06.401Z,100229.78
2022-08-19T17:50:35.282Z,100229.78
2022-08-19T17:53:03.292Z,100241.97
2022-08-19T17:55:30.574Z,100249.28
2022-08-19T17:57:57.643Z,100251.78
2022-08-19T18:00:24.745Z,100258.22
2022-08-19T18:03:07.776Z,100265.06
2022-08-19T18:05:42.645Z,100268.06
2022-08-19T18:08:14.136Z,100265.94
2022-08-19T18:11:06.119Z,100276.56
2022-08-19T18:16:32.673Z,100269.66
2022-08-19T18:18:59.797Z,100270.00
2022-08-19T18:21:31.736Z,100278.63
2022-08-19T18:24:01.789Z,100278.72
2022-08-19T18:26:30.329Z,100288.88
2022-08-19T18:28:57.847Z,100290.09
2022-08-19T18:31:24.849Z,100289.28
2022-08-19T18:33:54.710Z,100299.09
2022-08-19T18:36:50.039Z,100300.59
2022-08-19T18:39:39.216Z,100296.09
2022-08-19T18:51:30.318Z,100310.09
2022-08-19T19:10:20.474Z,100343.44
2022-08-19T19:12:54.803Z,100336.81
2022-08-19T19:15:35.771Z,100344.94
2022-08-19T19:33:06.301Z,100354.09
2022-08-19T19:35:41.014Z,100358.69
2022-08-19T19:38:12.684Z,100360.91
2022-08-19T19:40:39.813Z,100356.53
2022-08-19T19:43:06.745Z,100369.09
2022-08-19T19:45:54.971Z,100373.19
2022-08-19T19:48:21.956Z,100369.38
2022-08-19T19:51:02.909Z,100374.72
2022-08-19T19:53:52.432Z,100384.97
2022-08-19T19:56:30.836Z,100373.88
2022-08-19T19:59:14.481Z,100369.41
2022-08-19T20:05:00.972Z,100366.16
2022-08-19T20:08:15.356Z,100375.56
2022-08-19T20:10:59.907Z,100381.47
2022-08-19T20:13:35.278Z,100375.38
2022-08-19T20:16:06.821Z,100372.91
2022-08-19T20:18:36.825Z,100376.06
2022-08-19T20:21:08.084Z,100381.88
2022-08-19T20:23:39.388Z,100384.03
2022-08-19T20:26:13.716Z,100396.22
2022-08-19T20:29:13.356Z,100392.63
2022-08-19T20:31:57.361Z,100401.41
2022-08-19T20:34:41.827Z,100395.44
2022-08-19T20:37:18.880Z,100391.47
2022-08-19T20:39:48.428Z,100393.41
2022-08-19T20:42:17.769Z,100385.81
2022-08-19T20:44:44.586Z,100383.00
2022-08-19T20:47:21.692Z,100380.25
2022-08-19T20:54:38.683Z,100358.72
2022-08-19T20:57:06.932Z,100359.69
2022-08-19T21:00:39.939Z,100360.59
2022-08-19T21:03:07.214Z,100370.53
2022-08-19T21:05:39.959Z,100372.13
2022-08-19T21:08:52.202Z,100371.03
2022-08-19T21:17:37.356Z,100347.50
2022-08-19T21:23:52.275Z,100343.03
2022-08-19T21:30:55.268Z,100361.03
2022-08-19T21:33:23.427Z,100358.31
2022-08-19T21:36:12.343Z,100360.81
2022-08-19T21:38:47.545Z,100383.78
2022-08-19T21:41:17.571Z,100380.78
2022-08-19T21:43:54.651Z,100384.50
2022-08-19T21:46:36.056Z,100383.78
2022-08-19T21:50:08.332Z,100384.88
2022-08-19T21:52:39.675Z,100375.38
2022-08-19T21:55:08.134Z,100371.66
2022-08-19T21:57:35.016Z,100374.28
2022-08-19T22:00:02.817Z,100370.44
2022-08-19T22:02:36.479Z,100372.53
2022-08-19T22:05:07.496Z,100367.94
2022-08-19T22:07:37.610Z,100363.84
2022-08-19T22:10:52.486Z,100363.16
2022-08-19T22:13:27.963Z,100359.25
2022-08-19T22:19:37.305Z,100357.31
2022-08-19T22:22:08.216Z,100352.94
2022-08-19T22:24:44.132Z,100348.56
2022-08-19T22:27:14.270Z,100349.38
2022-08-19T22:29:41.160Z,100346.94
2022-08-19T22:32:26.946Z,100343.03
2022-08-19T22:34:58.440Z,100336.34
2022-08-19T22:38:08.202Z,100340.19
2022-08-19T22:44:11.578Z,100354.81
2022-08-19T22:46:46.649Z,100354.81
2022-08-19T22:49:13.470Z,100361.03
2022-08-19T22:51:58.908Z,100368.41
2022-08-19T22:54:25.916Z,100366.41
2022-08-19T22:56:55.947Z,100362.72
2022-08-19T22:59:22.804Z,100362.31
2022-08-19T23:01:53.787Z,100353.38
2022-08-19T23:04:24.217Z,100360.50
2022-08-19T23:06:52.786Z,100355.41
2022-08-19T23:09:58.490Z,100360.81
2022-08-19T23:12:33.724Z,100358.16
2022-08-19T23:15:05.244Z,100356.00
2022-08-19T23:17:57.723Z,100341.44
2022-08-19T23:20:28.305Z,100333.03
2022-08-19T23:23:09.901Z,100339.56
2022-08-19T23:29:04.513Z,100348.44
2022-08-19T23:31:51.973Z,100361.63
2022-08-19T23:34:18.997Z,100361.75
2022-08-19T23:36:46.454Z,100368.19
2022-08-19T23:40:00.226Z,100361.06
2022-08-19T23:42:43.343Z,100354.59
2022-08-19T23:45:57.741Z,100364.47
2022-08-19T23:49:12.106Z,100367.84
2022-08-19T23:51:44.601Z,100371.69
2022-08-19T23:54:43.014Z,100377.63
2022-08-19T23:58:14.313Z,100362.50
